Kalam Weather



Kalam's Current Weather

Temprature -10.01o clear sky

clear sky

Rain: 0 %

Min Temprature-10.01o
Max Temprature-10.01o
Humidity58
Wind Speed5.07 m/h
Sun Rise07:15:09
Sun Set17:27:29
Current Time: 23-Jan-2021 18:39:55
Lat/Lon: 35.4816, 72.5848




Kalam's Geo Location



Kalam's Weather Forecast

Time Overall Temp Min Temp Max Temp Humidity Wind Speed Rain
23-Jan-2021 (Sat)
20:00:00 scattered clouds -7.180 -10.450 -7.180 64 4.86 m/h 0 %
23:00:00 few clouds -8.950 -10.300 -8.950 56 4.11 m/h 0 %
24-Jan-2021 (Sun)
02:00:00 clear sky -9.530 -9.900 -9.530 48 3.97 m/h 0 %
05:00:00 clear sky -9.630 -9.670 -9.630 46 4.12 m/h 0 %
08:00:00 clear sky -8.340 -8.340 -8.340 51 3.53 m/h 0 %
11:00:00 clear sky 1.450 1.450 1.450 63 1.59 m/h 0 %
14:00:00 clear sky 3.110 3.110 3.110 60 1.14 m/h 0 %
17:00:00 clear sky -3.200 -3.200 -3.200 76 1.22 m/h 0 %
20:00:00 clear sky -7.690 -7.690 -7.690 67 3.3 m/h 0 %
23:00:00 clear sky -8.670 -8.670 -8.670 60 3.23 m/h 0 %
25-Jan-2021 (Mon)
02:00:00 scattered clouds -9.090 -9.090 -9.090 58 3.41 m/h 0 %
05:00:00 scattered clouds -9.440 -9.440 -9.440 56 3.51 m/h 0 %
08:00:00 few clouds -8.240 -8.240 -8.240 57 3.4 m/h 0 %
11:00:00 few clouds 1.050 1.050 1.050 66 1.81 m/h 0 %
14:00:00 clear sky 2.900 2.900 2.900 61 1.2 m/h 0 %
17:00:00 clear sky -2.890 -2.890 -2.890 76 1.06 m/h 0 %
20:00:00 clear sky -7.440 -7.440 -7.440 69 3.26 m/h 0 %
23:00:00 clear sky -8.440 -8.440 -8.440 66 3.17 m/h 0 %
26-Jan-2021 (Tue)
02:00:00 clear sky -8.750 -8.750 -8.750 64 3.23 m/h 0 %
05:00:00 clear sky -9.130 -9.130 -9.130 62 3.31 m/h 0 %
08:00:00 clear sky -8.120 -8.120 -8.120 64 3.38 m/h 0 %
11:00:00 clear sky 0.710 0.710 0.710 70 1.79 m/h 0 %
14:00:00 clear sky 2.390 2.390 2.390 65 1.38 m/h 0 %
17:00:00 scattered clouds -3.030 -3.030 -3.030 77 0.82 m/h 0 %
20:00:00 few clouds -7.550 -7.550 -7.550 71 3.31 m/h 0 %
23:00:00 clear sky -8.760 -8.760 -8.760 67 3.31 m/h 0 %
27-Jan-2021 (Wed)
02:00:00 clear sky -9.180 -9.180 -9.180 64 3.44 m/h 0 %
05:00:00 clear sky -9.680 -9.680 -9.680 62 3.7 m/h 0 %
08:00:00 clear sky -8.650 -8.650 -8.650 62 3.66 m/h 0 %
11:00:00 clear sky 0.600 0.600 0.600 69 2.03 m/h 0 %
14:00:00 clear sky 2.550 2.550 2.550 62 1.25 m/h 0 %
17:00:00 clear sky -3.380 -3.380 -3.380 76 1.35 m/h 0 %
20:00:00 clear sky -8.130 -8.130 -8.130 67 3.57 m/h 0 %
23:00:00 clear sky -9.020 -9.020 -9.020 62 3.41 m/h 0 %
28-Jan-2021 (Thu)
02:00:00 clear sky -9.330 -9.330 -9.330 60 3.39 m/h 0 %
05:00:00 clear sky -9.700 -9.700 -9.700 56 3.46 m/h 0 %
08:00:00 clear sky -8.380 -8.380 -8.380 58 3.4 m/h 0 %
11:00:00 clear sky 0.710 0.710 0.710 67 1.77 m/h 0 %
14:00:00 clear sky 2.500 2.500 2.500 61 1.22 m/h 0 %
17:00:00 clear sky -3.020 -3.020 -3.020 74 1.08 m/h 0 %

Famous Cities (60)